createdAt,value
2019-01-20T00:02:27.306Z,47.77
2019-01-20T00:04:58.374Z,51.60
2019-01-20T00:07:29.498Z,60.37
2019-01-20T00:10:00.604Z,50.27
2019-01-20T00:12:31.518Z,52.23
2019-01-20T00:15:02.889Z,65.73
2019-01-20T00:17:33.969Z,61.10
2019-01-20T00:20:05.772Z,57.47
2019-01-20T00:22:36.780Z,49.60
2019-01-20T00:25:08.588Z,54.80
2019-01-20T00:27:39.452Z,46.03
2019-01-20T00:30:11.821Z,47.33
2019-01-20T00:32:42.826Z,45.07
2019-01-20T00:35:15.804Z,51.63
2019-01-20T00:37:47.486Z,53.23
2019-01-20T00:40:18.608Z,50.80
2019-01-20T00:42:49.695Z,47.53
2019-01-20T00:45:20.918Z,48.20
2019-01-20T00:47:52.059Z,45.17
2019-01-20T00:50:23.512Z,49.47
2019-01-20T00:52:54.667Z,49.97
2019-01-20T00:55:26.202Z,50.50
2019-01-20T00:57:57.274Z,50.63
2019-01-20T01:00:31.764Z,50.30
2019-01-20T01:03:02.791Z,57.90
2019-01-20T01:05:33.984Z,41.90
2019-01-20T01:08:05.275Z,56.23
2019-01-20T01:10:36.411Z,54.63
2019-01-20T01:13:08.355Z,53.37
2019-01-20T01:15:39.380Z,52.67
2019-01-20T01:18:10.411Z,66.03
2019-01-20T01:20:41.948Z,54.50
2019-01-20T01:23:13.275Z,49.63
2019-01-20T01:25:45.320Z,54.13
2019-01-20T01:28:16.479Z,51.90
2019-01-20T01:30:47.655Z,56.73
2019-01-20T01:33:18.619Z,58.10
2019-01-20T01:35:49.673Z,54.90
2019-01-20T01:38:20.679Z,53.13
2019-01-20T01:40:51.691Z,59.20
2019-01-20T01:43:22.644Z,55.73
2019-01-20T01:45:53.647Z,54.60
2019-01-20T01:48:24.598Z,55.57
2019-01-20T01:50:55.542Z,54.33
2019-01-20T01:53:26.537Z,58.83
2019-01-20T01:55:57.568Z,63.47
2019-01-20T01:58:28.461Z,50.80
2019-01-20T02:00:59.653Z,55.53
2019-01-20T02:03:30.811Z,59.10
2019-01-20T02:06:02.144Z,58.03
2019-01-20T02:08:33.391Z,46.67
2019-01-20T02:11:04.783Z,56.37
2019-01-20T02:13:35.924Z,60.23
2019-01-20T02:16:07.217Z,64.03
2019-01-20T02:18:38.562Z,53.03
2019-01-20T02:21:09.677Z,64.37
2019-01-20T02:23:40.933Z,51.00
2019-01-20T02:26:11.997Z,46.43
2019-01-20T02:28:42.955Z,51.37
2019-01-20T02:31:14.019Z,54.07
2019-01-20T02:33:44.962Z,63.60
2019-01-20T02:36:16.165Z,50.70
2019-01-20T02:38:47.239Z,50.57
2019-01-20T02:41:18.358Z,53.83
2019-01-20T02:43:49.217Z,59.13
2019-01-20T02:46:20.416Z,54.70
2019-01-20T02:48:51.354Z,66.27
2019-01-20T02:51:22.241Z,49.03
2019-01-20T02:53:53.231Z,47.43
2019-01-20T02:56:24.358Z,60.83
2019-01-20T02:58:55.257Z,58.87
2019-01-20T03:01:26.367Z,58.47
2019-01-20T03:03:57.300Z,59.93
2019-01-20T03:06:28.349Z,53.73
2019-01-20T03:08:59.227Z,58.63
2019-01-20T03:11:30.151Z,55.27
2019-01-20T03:14:01.032Z,62.77
2019-01-20T03:16:32.001Z,59.47
2019-01-20T03:19:04.325Z,54.67
2019-01-20T03:21:35.283Z,58.67
2019-01-20T03:24:06.485Z,65.43
2019-01-20T03:26:37.551Z,66.00
2019-01-20T03:29:08.555Z,62.87
2019-01-20T03:31:39.466Z,58.23
2019-01-20T03:34:10.314Z,55.20
2019-01-20T03:37:00.470Z,55.73
2019-01-20T03:39:31.336Z,56.20
2019-01-20T03:42:02.319Z,51.40
2019-01-20T03:44:33.188Z,62.37
2019-01-20T03:47:05.254Z,57.33
2019-01-20T03:49:36.197Z,71.17
2019-01-20T03:52:07.341Z,60.70
2019-01-20T03:54:38.216Z,63.20
2019-01-20T03:57:09.337Z,57.60
2019-01-20T03:59:40.543Z,59.83
2019-01-20T04:02:11.809Z,70.20
2019-01-20T04:04:42.850Z,65.07
2019-01-20T04:07:13.817Z,58.30
2019-01-20T04:09:50.565Z,62.70
2019-01-20T04:12:21.739Z,58.20
2019-01-20T04:14:52.778Z,69.27
2019-01-20T04:17:24.124Z,66.00
2019-01-20T04:19:55.342Z,62.60
2019-01-20T04:22:26.301Z,63.00
2019-01-20T04:24:57.400Z,57.50
2019-01-20T04:27:28.414Z,63.93
2019-01-20T04:29:59.409Z,69.13
2019-01-20T04:32:49.699Z,65.07
2019-01-20T04:35:21.843Z,78.37
2019-01-20T04:37:52.751Z,68.87
2019-01-20T04:40:24.814Z,71.53
2019-01-20T04:42:55.805Z,65.27
2019-01-20T04:45:26.873Z,57.73
2019-01-20T04:47:57.926Z,67.90
2019-01-20T04:50:28.979Z,62.13
2019-01-20T04:53:00.206Z,72.53
2019-01-20T04:55:31.338Z,67.07
2019-01-20T04:58:02.383Z,64.30
2019-01-20T05:00:33.368Z,69.63
2019-01-20T05:03:04.380Z,60.90
2019-01-20T05:05:35.337Z,68.90
2019-01-20T05:08:06.538Z,59.73
2019-01-20T05:10:37.519Z,66.17
2019-01-20T05:13:08.510Z,60.30
2019-01-20T05:15:39.469Z,58.50
2019-01-20T05:18:10.469Z,63.13
2019-01-20T05:20:41.435Z,59.77
2019-01-20T05:23:12.406Z,57.10
2019-01-20T05:25:43.390Z,56.10
2019-01-20T05:28:14.290Z,50.40
2019-01-20T05:30:45.250Z,67.13
2019-01-20T05:33:16.209Z,61.47
2019-01-20T05:35:47.164Z,59.43
2019-01-20T05:38:18.111Z,56.77
2019-01-20T05:40:48.981Z,53.63
2019-01-20T05:43:19.900Z,56.53
2019-01-20T05:45:50.797Z,65.20
2019-01-20T05:48:21.716Z,53.73
2019-01-20T05:50:52.573Z,59.80
2019-01-20T05:53:23.638Z,48.40
2019-01-20T05:55:54.512Z,51.47
2019-01-20T05:58:26.742Z,56.33
2019-01-20T06:00:57.614Z,56.97
2019-01-20T06:03:28.511Z,58.53
2019-01-20T06:05:59.398Z,62.33
2019-01-20T06:08:30.716Z,62.10
2019-01-20T06:11:01.638Z,67.60
2019-01-20T06:13:32.590Z,67.10
2019-01-20T06:16:03.456Z,64.17
2019-01-20T06:18:34.361Z,58.97
2019-01-20T06:21:05.316Z,68.17
2019-01-20T06:23:36.202Z,59.70
2019-01-20T06:26:07.130Z,61.80
2019-01-20T06:28:39.532Z,64.83
2019-01-20T06:31:10.584Z,69.50
2019-01-20T06:33:41.760Z,81.17
2019-01-20T06:36:12.748Z,68.20
2019-01-20T06:38:43.817Z,56.97
2019-01-20T06:41:26.932Z,60.60
2019-01-20T06:43:57.860Z,60.10
2019-01-20T06:46:28.764Z,60.97
2019-01-20T06:49:19.165Z,59.50
2019-01-20T06:51:50.214Z,55.83
2019-01-20T06:54:21.132Z,64.97
2019-01-20T06:56:52.052Z,57.10
2019-01-20T06:59:24.532Z,49.47
2019-01-20T07:01:55.516Z,55.73
2019-01-20T07:04:26.536Z,63.27
2019-01-20T07:06:58.284Z,55.43
2019-01-20T07:09:29.249Z,56.37
2019-01-20T07:12:00.172Z,57.07
2019-01-20T07:14:32.841Z,55.70
2019-01-20T07:17:05.928Z,52.27
2019-01-20T07:19:39.097Z,53.30
2019-01-20T07:22:12.519Z,61.60
2019-01-20T07:24:43.637Z,51.03
2019-01-20T07:27:14.566Z,48.10
2019-01-20T07:29:45.408Z,52.97
2019-01-20T07:32:16.445Z,54.30
2019-01-20T07:34:47.344Z,51.43
2019-01-20T07:37:18.339Z,48.27
2019-01-20T07:39:49.280Z,53.37
2019-01-20T07:42:20.150Z,58.40
2019-01-20T07:44:51.122Z,47.23
2019-01-20T07:47:21.988Z,48.67
2019-01-20T07:49:52.999Z,48.27
2019-01-20T07:52:23.977Z,54.13
2019-01-20T07:54:55.422Z,55.27
2019-01-20T07:57:26.587Z,51.63
2019-01-20T07:59:57.618Z,47.23
2019-01-20T08:02:31.149Z,56.40
2019-01-20T08:05:02.192Z,47.77
2019-01-20T08:07:34.242Z,51.80
2019-01-20T08:10:08.316Z,52.33
2019-01-20T08:12:39.284Z,47.57
2019-01-20T08:15:11.842Z,62.37
2019-01-20T08:17:42.992Z,49.30
2019-01-20T08:20:17.370Z,47.77
2019-01-20T08:22:48.608Z,47.07
2019-01-20T08:25:20.533Z,42.97
2019-01-20T08:27:51.500Z,50.43
2019-01-20T08:30:26.339Z,48.53
2019-01-20T08:32:57.671Z,43.07
2019-01-20T08:35:28.682Z,47.67
2019-01-20T08:37:59.747Z,50.50
2019-01-20T08:40:34.499Z,48.33
2019-01-20T08:43:05.722Z,47.33
2019-01-20T08:46:29.063Z,46.83
2019-01-20T08:48:59.987Z,47.43
2019-01-20T08:51:31.627Z,49.67
2019-01-20T08:54:02.628Z,47.40
2019-01-20T08:56:34.839Z,54.07
2019-01-20T08:59:06.029Z,53.07
2019-01-20T09:01:37.280Z,47.37
2019-01-20T09:04:09.048Z,48.80
2019-01-20T09:06:40.524Z,44.07
2019-01-20T09:09:11.608Z,44.93
2019-01-20T09:11:43.023Z,52.13
2019-01-20T09:14:14.085Z,45.23
2019-01-20T09:16:45.205Z,46.70
2019-01-20T09:19:16.398Z,45.93
2019-01-20T09:21:47.473Z,55.53
2019-01-20T09:24:18.539Z,49.33
2019-01-20T09:26:49.681Z,50.23
2019-01-20T09:29:20.761Z,43.33
2019-01-20T09:31:51.910Z,44.77
2019-01-20T09:34:22.991Z,58.77
2019-01-20T09:36:54.022Z,47.33
2019-01-20T09:39:24.982Z,45.23
2019-01-20T09:41:55.980Z,50.30
2019-01-20T09:44:26.886Z,53.97
2019-01-20T09:46:57.858Z,50.50
2019-01-20T09:49:28.846Z,58.33
2019-01-20T09:51:59.819Z,53.63
2019-01-20T09:54:30.931Z,49.10
2019-01-20T09:57:01.917Z,50.20
2019-01-20T09:59:33.016Z,52.20
2019-01-20T10:02:04.155Z,50.17
2019-01-20T10:04:35.266Z,44.17
2019-01-20T10:07:06.713Z,48.13
2019-01-20T10:09:37.654Z,48.47
2019-01-20T10:12:08.687Z,48.80
2019-01-20T10:14:39.698Z,43.00
2019-01-20T10:17:10.712Z,42.10
2019-01-20T10:19:42.131Z,47.83
2019-01-20T10:22:13.151Z,44.80
2019-01-20T10:24:44.053Z,50.97
2019-01-20T10:27:15.045Z,50.50
2019-01-20T10:29:45.979Z,42.60
2019-01-20T10:32:17.060Z,53.77
2019-01-20T10:34:48.408Z,38.50
2019-01-20T10:37:19.754Z,46.50
2019-01-20T10:39:50.922Z,47.20
2019-01-20T10:42:22.783Z,40.90
2019-01-20T10:44:54.529Z,41.80
2019-01-20T10:47:26.563Z,42.80
2019-01-20T10:49:57.769Z,43.70
2019-01-20T10:52:31.143Z,42.47
2019-01-20T10:58:19.568Z,39.13
2019-01-20T11:00:57.141Z,42.70
2019-01-20T11:03:29.295Z,44.97
2019-01-20T11:06:06.701Z,47.57
2019-01-20T11:08:40.314Z,45.00
2019-01-20T11:11:29.591Z,46.17
2019-01-20T11:14:00.945Z,39.90
2019-01-20T11:16:32.836Z,45.20
2019-01-20T11:19:05.642Z,46.27
2019-01-20T11:21:37.918Z,40.53
2019-01-20T11:24:09.255Z,42.30
2019-01-20T11:26:40.744Z,48.87
2019-01-20T11:29:12.840Z,48.97
2019-01-20T11:31:44.070Z,52.63
2019-01-20T11:34:15.166Z,43.53
2019-01-20T11:36:46.191Z,44.00
2019-01-20T11:39:17.129Z,42.03
2019-01-20T11:41:48.092Z,43.47
2019-01-20T11:44:19.359Z,45.93
2019-01-20T11:46:50.562Z,42.20
2019-01-20T11:49:21.577Z,37.43
2019-01-20T11:51:52.819Z,45.70
2019-01-20T11:54:23.885Z,42.73
2019-01-20T11:56:55.878Z,38.60
2019-01-20T11:59:26.873Z,39.10
2019-01-20T12:01:57.826Z,37.40
2019-01-20T12:04:39.400Z,37.00
2019-01-20T12:07:10.773Z,39.30
2019-01-20T12:09:42.107Z,36.93
2019-01-20T12:12:13.402Z,35.87
2019-01-20T12:14:44.785Z,33.17
2019-01-20T12:17:16.581Z,35.13
2019-01-20T12:19:48.080Z,37.60
2019-01-20T12:22:19.460Z,36.93
2019-01-20T12:24:53.584Z,37.80
2019-01-20T12:27:32.127Z,46.57
2019-01-20T12:30:03.395Z,39.80
2019-01-20T12:32:34.358Z,35.60
2019-01-20T12:35:05.887Z,36.43
2019-01-20T12:37:38.493Z,41.93
2019-01-20T12:40:24.606Z,35.97
2019-01-20T12:42:56.771Z,34.13
2019-01-20T12:45:27.919Z,31.37
2019-01-20T12:48:00.774Z,33.43
2019-01-20T12:50:31.704Z,35.67
2019-01-20T12:53:02.645Z,36.60
2019-01-20T12:55:48.401Z,39.67
2019-01-20T12:58:19.878Z,40.27
2019-01-20T13:00:51.121Z,43.90
2019-01-20T13:03:24.518Z,40.10
2019-01-20T13:05:55.762Z,45.77
2019-01-20T13:08:26.885Z,49.17
2019-01-20T13:10:57.828Z,49.67
2019-01-20T13:13:32.021Z,58.00
2019-01-20T13:16:04.729Z,49.77
2019-01-20T13:18:36.876Z,47.60
2019-01-20T13:21:08.146Z,46.20
2019-01-20T13:23:39.409Z,49.90
2019-01-20T13:26:10.327Z,52.27
2019-01-20T13:28:41.411Z,49.40
2019-01-20T13:31:12.502Z,47.63
2019-01-20T13:33:43.406Z,40.47
2019-01-20T13:36:14.484Z,42.00
2019-01-20T13:38:45.479Z,45.97
2019-01-20T13:41:22.815Z,49.57
2019-01-20T13:43:55.677Z,50.90
2019-01-20T13:46:30.021Z,40.10
2019-01-20T13:49:01.061Z,50.23
2019-01-20T13:51:32.205Z,47.90
2019-01-20T13:54:03.379Z,49.80
2019-01-20T13:56:34.379Z,46.37
2019-01-20T13:59:05.447Z,46.27
2019-01-20T14:01:36.580Z,50.03
2019-01-20T14:04:07.681Z,49.00
2019-01-20T14:06:38.735Z,49.23
2019-01-20T14:09:10.621Z,48.50
2019-01-20T14:11:41.879Z,57.70
2019-01-20T14:14:12.877Z,59.07
2019-01-20T14:16:43.767Z,52.67
2019-01-20T14:19:21.506Z,54.50
2019-01-20T14:21:48.483Z,57.30
2019-01-20T14:24:19.562Z,52.23
2019-01-20T14:26:50.903Z,54.37
2019-01-20T14:29:21.903Z,52.40
2019-01-20T14:31:52.854Z,51.97
2019-01-20T14:34:23.865Z,55.57
2019-01-20T14:36:54.810Z,59.33
2019-01-20T14:39:25.760Z,61.40
2019-01-20T14:41:56.804Z,65.53
2019-01-20T14:44:27.703Z,56.80
2019-01-20T14:46:58.771Z,65.90
2019-01-20T14:49:30.789Z,64.63
2019-01-20T14:52:01.757Z,56.10
2019-01-20T14:54:32.948Z,54.97
2019-01-20T14:57:04.505Z,51.03
2019-01-20T14:59:35.761Z,54.73
2019-01-20T15:02:06.904Z,54.23
2019-01-20T15:04:38.072Z,56.27
2019-01-20T15:07:09.349Z,47.73
2019-01-20T15:09:40.541Z,51.53
2019-01-20T15:12:11.754Z,53.37
2019-01-20T15:14:42.888Z,49.50
2019-01-20T15:17:14.062Z,55.83
2019-01-20T15:19:45.062Z,47.87
2019-01-20T15:22:17.076Z,50.57
2019-01-20T15:24:48.070Z,58.10
2019-01-20T15:27:18.983Z,49.43
2019-01-20T15:29:50.001Z,52.73
2019-01-20T15:32:20.994Z,49.83
2019-01-20T15:34:51.996Z,57.37
2019-01-20T15:37:42.640Z,54.77
2019-01-20T15:40:15.535Z,56.70
2019-01-20T15:42:47.236Z,52.03
2019-01-20T15:45:19.862Z,55.33
2019-01-20T15:47:52.556Z,61.70
2019-01-20T15:50:29.970Z,50.57
2019-01-20T15:53:01.949Z,51.30
2019-01-20T15:55:33.217Z,51.40
2019-01-20T15:58:04.421Z,56.13
2019-01-20T16:00:35.387Z,61.60
2019-01-20T16:03:06.698Z,52.97
2019-01-20T16:05:37.618Z,57.80
2019-01-20T16:08:08.591Z,62.47
2019-01-20T16:10:39.574Z,59.50
2019-01-20T16:13:10.577Z,62.43
2019-01-20T16:15:41.556Z,60.70
2019-01-20T16:18:14.298Z,64.60
2019-01-20T16:20:45.213Z,66.17
2019-01-20T16:23:16.360Z,64.07
2019-01-20T16:25:47.494Z,68.13
2019-01-20T16:28:19.034Z,61.90
2019-01-20T16:30:52.732Z,63.20
2019-01-20T16:33:25.034Z,70.17
2019-01-20T16:35:56.158Z,62.67
2019-01-20T16:38:46.380Z,64.37
2019-01-20T16:41:17.590Z,64.40
2019-01-20T16:43:48.787Z,63.83
2019-01-20T16:46:19.929Z,68.63
2019-01-20T16:48:51.119Z,63.67
2019-01-20T16:51:25.155Z,68.10
2019-01-20T16:53:56.465Z,73.50
2019-01-20T16:56:27.842Z,69.30
2019-01-20T16:58:58.967Z,67.90
2019-01-20T17:01:30.086Z,69.17
2019-01-20T17:04:01.254Z,73.87
2019-01-20T17:06:32.744Z,69.57
2019-01-20T17:09:05.309Z,73.93
2019-01-20T17:11:36.620Z,66.30
2019-01-20T17:14:07.798Z,75.60
2019-01-20T17:16:38.915Z,70.97
2019-01-20T17:19:17.222Z,76.90
2019-01-20T17:21:42.783Z,71.87
2019-01-20T17:24:13.804Z,74.23
2019-01-20T17:26:44.766Z,76.00
2019-01-20T17:29:15.690Z,79.77
2019-01-20T17:31:46.751Z,77.20
2019-01-20T17:34:17.753Z,73.10
2019-01-20T17:36:48.740Z,69.50
2019-01-20T17:39:19.776Z,65.17
2019-01-20T17:41:50.714Z,70.83
2019-01-20T17:44:21.714Z,83.83
2019-01-20T17:46:52.720Z,70.17
2019-01-20T17:49:23.729Z,65.03
2019-01-20T17:51:58.279Z,79.23
2019-01-20T17:54:29.455Z,75.40
2019-01-20T17:57:00.501Z,70.33
2019-01-20T17:59:32.068Z,66.50
2019-01-20T18:02:07.219Z,67.33
2019-01-20T18:04:38.484Z,67.80
2019-01-20T18:07:09.713Z,72.23
2019-01-20T18:09:40.920Z,65.40
2019-01-20T18:12:11.967Z,68.77
2019-01-20T18:14:43.335Z,77.50
2019-01-20T18:17:14.209Z,76.83
2019-01-20T18:19:45.428Z,70.20
2019-01-20T18:22:16.693Z,59.00
2019-01-20T18:24:51.563Z,59.60
2019-01-20T18:27:22.617Z,62.07
2019-01-20T18:29:53.685Z,74.80
2019-01-20T18:32:24.633Z,73.73
2019-01-20T18:34:55.979Z,63.53
2019-01-20T18:37:26.991Z,77.70
2019-01-20T18:39:58.109Z,76.27
2019-01-20T18:42:31.441Z,72.50
2019-01-20T18:45:02.760Z,63.00
2019-01-20T18:47:36.535Z,72.63
2019-01-20T18:50:09.579Z,63.47
2019-01-20T18:52:43.963Z,69.10
2019-01-20T18:55:15.834Z,75.87
2019-01-20T18:57:47.339Z,64.53
2019-01-20T19:00:33.291Z,63.83
2019-01-20T19:03:04.742Z,67.30
2019-01-20T19:05:36.018Z,69.90
2019-01-20T19:08:08.134Z,76.17
2019-01-20T19:10:39.340Z,67.23
2019-01-20T19:13:10.738Z,69.67
2019-01-20T19:15:43.947Z,73.77
2019-01-20T19:18:19.153Z,70.93
2019-01-20T19:20:54.589Z,79.33
2019-01-20T19:23:25.591Z,78.40
2019-01-20T19:25:57.724Z,72.40
2019-01-20T19:28:28.982Z,72.00
2019-01-20T19:31:00.136Z,84.10
2019-01-20T19:33:33.662Z,85.47
2019-01-20T19:36:04.857Z,75.90
2019-01-20T19:38:35.834Z,82.10
2019-01-20T19:41:06.972Z,99.70
2019-01-20T19:43:38.028Z,84.87
2019-01-20T19:46:16.093Z,84.50
2019-01-20T19:48:42.738Z,76.40
2019-01-20T19:51:13.895Z,80.30
2019-01-20T19:53:44.920Z,84.77
2019-01-20T19:56:18.069Z,100.53
2019-01-20T19:59:00.324Z,87.83
2019-01-20T20:01:30.789Z,94.97
2019-01-20T20:03:59.017Z,95.90
2019-01-20T20:06:35.045Z,88.47
2019-01-20T20:09:12.714Z,93.20
2019-01-20T20:11:43.830Z,90.30
2019-01-20T20:14:14.938Z,82.47
2019-01-20T20:16:45.870Z,94.33
2019-01-20T20:19:16.813Z,101.77
2019-01-20T20:21:47.824Z,89.20
2019-01-20T20:24:25.120Z,95.57
2019-01-20T20:26:51.550Z,98.60
2019-01-20T20:29:22.515Z,92.80
2019-01-20T20:32:12.998Z,96.93
2019-01-20T20:34:44.938Z,79.27
2019-01-20T20:37:15.914Z,102.23
2019-01-20T20:39:46.865Z,80.03
2019-01-20T20:42:17.879Z,78.13
2019-01-20T20:44:48.797Z,85.57
2019-01-20T20:47:19.889Z,77.00
2019-01-20T20:49:50.913Z,70.20
2019-01-20T20:52:21.973Z,77.73
2019-01-20T20:54:53.135Z,71.20
2019-01-20T20:57:24.941Z,74.20
2019-01-20T20:59:56.165Z,77.37
2019-01-20T21:02:27.429Z,75.57
2019-01-20T21:04:58.472Z,70.97
2019-01-20T21:07:29.614Z,76.27
2019-01-20T21:10:00.734Z,76.70
2019-01-20T21:12:31.939Z,78.70
2019-01-20T21:15:03.620Z,78.27
2019-01-20T21:17:35.287Z,91.50
2019-01-20T21:20:09.995Z,82.10
2019-01-20T21:22:41.009Z,101.07
2019-01-20T21:25:12.922Z,82.90
2019-01-20T21:28:03.167Z,86.20
2019-01-20T21:30:34.664Z,72.13
2019-01-20T21:33:06.159Z,65.07
2019-01-20T21:35:37.671Z,78.23
2019-01-20T21:38:09.263Z,84.70
2019-01-20T21:40:40.592Z,81.03
2019-01-20T21:43:11.882Z,74.30
2019-01-20T21:45:43.118Z,85.57
2019-01-20T21:48:14.216Z,82.60
2019-01-20T21:50:45.513Z,81.17
2019-01-20T21:53:16.661Z,89.30
2019-01-20T21:55:49.505Z,87.53
2019-01-20T21:58:20.719Z,82.60
2019-01-20T22:00:53.457Z,76.97
2019-01-20T22:03:24.540Z,87.67
2019-01-20T22:05:55.564Z,76.93
2019-01-20T22:08:26.610Z,79.77
2019-01-20T22:10:57.615Z,82.73
2019-01-20T22:13:28.693Z,82.07
2019-01-20T22:15:59.660Z,81.20
2019-01-20T22:18:30.700Z,78.70
2019-01-20T22:21:01.801Z,80.43
2019-01-20T22:23:32.791Z,87.07
2019-01-20T22:26:06.162Z,92.80
2019-01-20T22:28:37.186Z,76.60
2019-01-20T22:31:08.258Z,87.60
2019-01-20T22:33:39.190Z,93.10
2019-01-20T22:36:10.230Z,83.37
2019-01-20T22:38:41.265Z,84.97
2019-01-20T22:41:12.254Z,89.57
2019-01-20T22:43:43.527Z,75.43
2019-01-20T22:46:14.642Z,74.07
2019-01-20T22:48:45.659Z,85.10
2019-01-20T22:51:16.745Z,81.27
2019-01-20T22:53:47.752Z,73.27
2019-01-20T22:56:19.804Z,84.47
2019-01-20T22:58:51.156Z,74.17
2019-01-20T23:01:24.242Z,72.83
2019-01-20T23:03:55.918Z,82.17
2019-01-20T23:06:27.106Z,75.47
2019-01-20T23:08:58.570Z,70.53
2019-01-20T23:11:29.688Z,77.63
2019-01-20T23:14:00.700Z,72.40
2019-01-20T23:16:32.748Z,72.77
2019-01-20T23:19:03.776Z,81.63
2019-01-20T23:21:34.695Z,83.57
2019-01-20T23:24:06.151Z,79.87
2019-01-20T23:26:37.202Z,77.00
2019-01-20T23:29:08.256Z,72.60
2019-01-20T23:31:39.322Z,83.83
2019-01-20T23:34:10.402Z,80.13
2019-01-20T23:36:41.435Z,96.37
2019-01-20T23:39:12.513Z,74.40
2019-01-20T23:41:43.720Z,78.17
2019-01-20T23:44:16.882Z,81.33
2019-01-20T23:46:47.823Z,77.63
2019-01-20T23:49:18.862Z,80.50
2019-01-20T23:51:49.859Z,74.93
2019-01-20T23:54:20.782Z,78.10
2019-01-20T23:56:51.668Z,76.43
2019-01-20T23:59:22.726Z,84.10
